Davis Park, New York
Current Conditions -  °F | °C
As of 2:56 AM on Sunday 26 Oct 2014 (Local Time) from KISP Reporting Station
Overcast Overcast  
Wind Chill: 58°   Ceiling: 8000
Heat Index: 58°   Visibility: 10mi
Dew Point: 48°   Wind: 8mph
Humidity: 70%   Direction: 290°WNW
Pressure: 29.53"   Gusts: NA
Location:  40.7718°N, 72.9949°W
Report Text: KISP 260656Z AUTO 29007KT 10SM BKN080 OVC100 14/09 A2953 RMK AO2 SLP999 T01440089
Loading
Personal Weather Stations






























Interactive Weather Map
Tropical Storm Tracking
New forecast layout! Learn more

10-Day Weather Forecast

Advertisements
Track Severe Weather on mobile